createdAt,value
2022-12-03T00:00:26.736Z,-1.35
2022-12-03T00:02:53.316Z,-1.32
2022-12-03T00:05:19.934Z,-1.33
2022-12-03T00:07:46.439Z,-1.36
2022-12-03T00:10:13.076Z,-1.33
2022-12-03T00:12:39.830Z,-1.34
2022-12-03T00:15:07.294Z,-1.37
2022-12-03T00:17:33.872Z,-1.31
2022-12-03T00:20:00.537Z,-1.32
2022-12-03T00:22:26.990Z,-1.37
2022-12-03T00:24:53.887Z,-1.36
2022-12-03T00:27:20.594Z,-1.36
2022-12-03T00:29:47.430Z,-1.35
2022-12-03T00:32:14.237Z,-1.37
2022-12-03T00:34:40.789Z,-1.37
2022-12-03T00:37:07.283Z,-1.38
2022-12-03T00:39:33.811Z,-1.37
2022-12-03T00:42:00.428Z,-1.39
2022-12-03T00:44:27.076Z,-1.35
2022-12-03T00:46:53.638Z,-1.39
2022-12-03T00:49:20.150Z,-1.37
2022-12-03T00:51:46.673Z,-1.38
2022-12-03T00:54:13.186Z,-1.38
2022-12-03T00:56:39.710Z,-1.39
2022-12-03T00:59:06.198Z,-1.39
2022-12-03T01:01:32.831Z,-1.42
2022-12-03T01:03:59.331Z,-1.38
2022-12-03T01:06:25.867Z,-1.31
2022-12-03T01:08:52.337Z,-1.38
2022-12-03T01:11:37.467Z,-1.38
2022-12-03T01:14:09.820Z,-1.39
2022-12-03T01:16:36.862Z,-1.39
2022-12-03T01:19:05.136Z,-1.41
2022-12-03T01:21:32.502Z,-1.39
2022-12-03T01:23:59.949Z,-1.39
2022-12-03T01:26:26.730Z,-1.42
2022-12-03T01:28:53.319Z,-1.44
2022-12-03T01:31:38.869Z,-1.48
2022-12-03T01:34:06.054Z,-1.43
2022-12-03T01:36:34.339Z,-1.44
2022-12-03T01:39:02.132Z,-1.49
2022-12-03T01:41:29.766Z,-1.40
2022-12-03T01:43:57.991Z,-1.44
2022-12-03T01:46:31.896Z,-1.47
2022-12-03T01:48:58.495Z,-1.50
2022-12-03T01:51:25.246Z,-1.49
2022-12-03T01:56:21.379Z,-1.50
2022-12-03T01:58:48.528Z,-1.41
2022-12-03T02:01:17.983Z,-1.46
2022-12-03T02:03:46.125Z,-1.50
2022-12-03T02:06:21.280Z,-1.43
2022-12-03T02:08:49.085Z,-1.39
2022-12-03T02:11:25.486Z,-1.45
2022-12-03T02:13:55.480Z,-1.52
2022-12-03T02:16:22.288Z,-1.50
2022-12-03T02:18:49.009Z,-1.50
2022-12-03T02:21:24.628Z,-1.51
2022-12-03T02:24:01.607Z,-1.53
2022-12-03T02:26:29.788Z,-1.51
2022-12-03T02:28:57.072Z,-1.42
2022-12-03T02:31:24.195Z,-1.42
2022-12-03T02:33:51.087Z,-1.47
2022-12-03T02:36:17.666Z,-1.47
2022-12-03T02:38:45.458Z,-1.49
2022-12-03T02:41:35.620Z,-1.49
2022-12-03T02:44:03.604Z,-1.46
2022-12-03T02:46:30.678Z,-1.44
2022-12-03T02:48:57.652Z,-1.44
2022-12-03T02:51:25.801Z,-1.48
2022-12-03T02:53:54.770Z,-1.48
2022-12-03T02:56:26.779Z,-1.47
2022-12-03T02:58:57.466Z,-1.50
2022-12-03T03:01:24.154Z,-1.54
2022-12-03T03:03:51.975Z,-1.51
2022-12-03T03:06:19.929Z,-1.51
2022-12-03T03:08:46.492Z,-1.52
2022-12-03T03:11:13.257Z,-1.53
2022-12-03T03:13:40.123Z,-1.55
2022-12-03T03:16:08.003Z,-1.55
2022-12-03T03:18:35.035Z,-1.56
2022-12-03T03:21:01.886Z,-1.55
2022-12-03T03:23:28.453Z,-1.54
2022-12-03T03:26:03.852Z,-1.45
2022-12-03T03:28:31.389Z,-1.50
2022-12-03T03:31:00.706Z,-1.48
2022-12-03T03:33:27.761Z,-1.51
2022-12-03T03:35:54.490Z,-1.47
2022-12-03T03:38:22.253Z,-1.51
2022-12-03T03:40:50.886Z,-1.46
2022-12-03T03:43:17.657Z,-1.47
2022-12-03T03:45:44.543Z,-1.41
2022-12-03T03:48:12.148Z,-1.49
2022-12-03T03:50:38.959Z,-1.44
2022-12-03T03:53:06.073Z,-1.40
2022-12-03T03:55:33.275Z,-1.47
2022-12-03T03:58:00.067Z,-1.51
2022-12-03T04:00:26.979Z,-1.45
2022-12-03T04:02:54.106Z,-1.50
2022-12-03T04:05:22.721Z,-1.44
2022-12-03T04:07:49.639Z,-1.49
2022-12-03T04:10:36.971Z,-1.48
2022-12-03T04:13:04.112Z,-1.42
2022-12-03T04:15:31.035Z,-1.44
2022-12-03T04:18:17.142Z,-1.45
2022-12-03T04:20:43.859Z,-1.52
2022-12-03T04:23:10.498Z,-1.51
2022-12-03T04:26:03.342Z,-1.50
2022-12-03T04:28:48.323Z,-1.47
2022-12-03T04:31:33.488Z,-1.51
2022-12-03T04:34:18.174Z,-1.53
2022-12-03T04:36:44.745Z,-1.48
2022-12-03T04:39:11.208Z,-1.51
2022-12-03T04:41:37.807Z,-1.56
2022-12-03T04:44:33.737Z,-1.56
2022-12-03T04:47:01.332Z,-1.48
2022-12-03T04:49:27.914Z,-1.53
2022-12-03T04:51:54.400Z,-1.53
2022-12-03T04:54:21.030Z,-1.58
2022-12-03T04:56:47.673Z,-1.57
2022-12-03T04:59:16.600Z,-1.47
2022-12-03T05:01:44.082Z,-1.48
2022-12-03T05:04:11.663Z,-1.45
2022-12-03T05:06:38.610Z,-1.50
2022-12-03T05:09:05.370Z,-1.43
2022-12-03T05:11:31.814Z,-1.51
2022-12-03T05:13:58.442Z,-1.52
2022-12-03T05:16:25.220Z,-1.51
2022-12-03T05:18:51.770Z,-1.54
2022-12-03T05:21:18.432Z,-1.42
2022-12-03T05:23:44.949Z,-1.48
2022-12-03T05:26:11.505Z,-1.47
2022-12-03T05:28:38.564Z,-1.49
2022-12-03T05:31:05.848Z,-1.46
2022-12-03T05:33:32.523Z,-1.46
2022-12-03T05:35:59.298Z,-1.47
2022-12-03T05:38:25.936Z,-1.42
2022-12-03T05:40:52.505Z,-1.42
2022-12-03T05:43:19.071Z,-1.45
2022-12-03T05:45:45.964Z,-1.46
2022-12-03T05:48:13.570Z,-1.44
2022-12-03T05:50:43.214Z,-1.44
2022-12-03T05:53:10.541Z,-1.45
2022-12-03T05:55:37.452Z,-1.43
2022-12-03T05:58:04.076Z,-1.43
2022-12-03T06:00:34.578Z,-1.40
2022-12-03T06:03:08.031Z,-1.42
2022-12-03T06:05:34.887Z,-1.38
2022-12-03T06:08:02.131Z,-1.36
2022-12-03T06:10:29.857Z,-1.37
2022-12-03T06:12:56.792Z,-1.37
2022-12-03T06:15:23.452Z,-1.43
2022-12-03T06:17:50.094Z,-1.37
2022-12-03T06:20:18.364Z,-1.31
2022-12-03T06:22:45.640Z,-1.37
2022-12-03T06:25:12.688Z,-1.37
2022-12-03T06:27:39.233Z,-1.39
2022-12-03T06:30:06.688Z,-1.43
2022-12-03T06:32:33.303Z,-1.47
2022-12-03T06:34:59.871Z,-1.41
2022-12-03T06:37:26.348Z,-1.39
2022-12-03T06:39:52.877Z,-1.41
2022-12-03T06:42:19.384Z,-1.41
2022-12-03T06:44:46.061Z,-1.43
2022-12-03T06:47:12.530Z,-1.45
2022-12-03T06:49:39.011Z,-1.38
2022-12-03T06:52:05.597Z,-1.38
2022-12-03T06:54:32.173Z,-1.39
2022-12-03T06:56:58.688Z,-1.37
2022-12-03T06:59:25.277Z,-1.39
2022-12-03T07:01:51.966Z,-1.40
2022-12-03T07:04:18.523Z,-1.39
2022-12-03T07:06:45.063Z,-1.39
2022-12-03T07:09:11.619Z,-1.38
2022-12-03T07:11:40.949Z,-1.37
2022-12-03T07:14:09.173Z,-1.39
2022-12-03T07:16:36.227Z,-1.38
2022-12-03T07:19:04.706Z,-1.39
2022-12-03T07:21:31.543Z,-1.35
2022-12-03T07:23:58.081Z,-1.36
2022-12-03T07:26:24.655Z,-1.37
2022-12-03T07:28:51.189Z,-1.39
2022-12-03T07:31:17.766Z,-1.39
2022-12-03T07:33:44.494Z,-1.36
2022-12-03T07:36:11.165Z,-1.34
2022-12-03T07:38:37.748Z,-1.33
2022-12-03T07:41:04.311Z,-1.33
2022-12-03T07:43:30.885Z,-1.32
2022-12-03T07:45:57.453Z,-1.27
2022-12-03T07:48:23.960Z,-1.27
2022-12-03T07:50:50.643Z,-1.26
2022-12-03T07:53:17.348Z,-1.25
2022-12-03T07:55:43.902Z,-1.27
2022-12-03T07:58:10.619Z,-1.21
2022-12-03T08:00:37.186Z,-1.20
2022-12-03T08:03:03.742Z,-1.16
2022-12-03T08:05:30.421Z,-1.10
2022-12-03T08:07:57.079Z,-1.09
2022-12-03T08:10:25.578Z,-1.06
2022-12-03T08:12:53.715Z,-1.03
2022-12-03T08:15:25.706Z,-1.05
2022-12-03T08:17:55.913Z,-1.08
2022-12-03T08:20:24.627Z,-1.07
2022-12-03T08:22:52.959Z,-1.06
2022-12-03T08:25:23.593Z,-1.07
2022-12-03T08:27:53.544Z,-1.03
2022-12-03T08:30:20.617Z,-1.05
2022-12-03T08:32:47.272Z,-1.02
2022-12-03T08:35:24.245Z,-1.03
2022-12-03T08:38:16.326Z,-1.00
2022-12-03T08:40:46.856Z,-0.93
2022-12-03T08:43:19.178Z,-0.93
2022-12-03T08:45:45.974Z,-0.86
2022-12-03T08:48:18.538Z,-0.89
2022-12-03T08:50:45.877Z,-0.87
2022-12-03T08:53:31.311Z,-0.86
2022-12-03T08:56:05.160Z,-0.83
2022-12-03T08:58:38.836Z,-0.80
2022-12-03T09:01:11.100Z,-0.83
2022-12-03T09:03:39.692Z,-0.74
2022-12-03T09:06:06.629Z,-0.67
2022-12-03T09:08:33.117Z,-0.69
2022-12-03T09:10:59.735Z,-0.65
2022-12-03T09:13:26.232Z,-0.65
2022-12-03T09:15:52.883Z,-0.66
2022-12-03T09:18:19.380Z,-0.66
2022-12-03T09:20:45.891Z,-0.59
2022-12-03T09:23:12.389Z,-0.53
2022-12-03T09:25:38.934Z,-0.58
2022-12-03T09:28:05.727Z,-0.55
2022-12-03T09:30:32.316Z,-0.50
2022-12-03T09:33:00.131Z,-0.50
2022-12-03T09:35:27.829Z,-0.49
2022-12-03T09:37:54.502Z,-0.52
2022-12-03T09:40:21.704Z,-0.51
2022-12-03T09:42:48.734Z,-0.50
2022-12-03T09:45:15.930Z,-0.45
2022-12-03T09:47:49.352Z,-0.42
2022-12-03T09:50:23.157Z,-0.38
2022-12-03T09:52:51.697Z,-0.40
2022-12-03T09:55:22.415Z,-0.36
2022-12-03T09:57:49.009Z,-0.40
2022-12-03T10:00:18.716Z,-0.35
2022-12-03T10:02:46.901Z,-0.28
2022-12-03T10:05:14.533Z,-0.28
2022-12-03T10:07:42.014Z,-0.31
2022-12-03T10:10:16.650Z,-0.30
2022-12-03T10:12:43.586Z,-0.33
2022-12-03T10:15:17.448Z,-0.30
2022-12-03T10:17:45.707Z,-0.27
2022-12-03T10:20:16.282Z,-0.23
2022-12-03T10:22:42.843Z,-0.23
2022-12-03T10:25:13.164Z,-0.22
2022-12-03T10:27:40.843Z,-0.22
2022-12-03T10:30:22.411Z,-0.12
2022-12-03T10:32:50.769Z,-0.17
2022-12-03T10:35:20.807Z,-0.14
2022-12-03T10:38:03.653Z,-0.10
2022-12-03T10:40:33.031Z,-0.04
2022-12-03T10:43:28.924Z,-0.04
2022-12-03T10:46:04.151Z,-0.11
2022-12-03T10:48:31.076Z,-0.11
2022-12-03T10:51:21.131Z,-0.12
2022-12-03T10:53:49.348Z,-0.10
2022-12-03T10:56:24.084Z,-0.11
2022-12-03T10:58:51.181Z,-0.11
2022-12-03T11:01:20.559Z,-0.09
2022-12-03T11:03:47.886Z,-0.12
2022-12-03T11:06:23.098Z,-0.13
2022-12-03T11:08:58.402Z,-0.16
2022-12-03T11:11:29.342Z,-0.18
2022-12-03T11:14:00.635Z,-0.20
2022-12-03T11:16:39.254Z,-0.17
2022-12-03T11:19:17.504Z,-0.20
2022-12-03T11:22:02.744Z,-0.20
2022-12-03T11:24:29.733Z,-0.18
2022-12-03T11:26:56.124Z,-0.23
2022-12-03T11:29:47.335Z,-0.23
2022-12-03T11:32:38.984Z,-0.25
2022-12-03T11:35:13.036Z,-0.24
2022-12-03T11:37:39.898Z,-0.23
2022-12-03T11:40:18.326Z,-0.24
2022-12-03T11:42:47.156Z,-0.22
2022-12-03T11:45:28.336Z,-0.23
2022-12-03T11:48:15.029Z,-0.23
2022-12-03T11:50:52.244Z,-0.20
2022-12-03T11:53:23.681Z,-0.14
2022-12-03T11:56:06.636Z,-0.17
2022-12-03T11:58:35.293Z,-0.21
2022-12-03T12:01:04.576Z,-0.22
2022-12-03T12:03:37.303Z,-0.17
2022-12-03T12:06:21.146Z,-0.16
2022-12-03T12:08:50.648Z,-0.14
2022-12-03T12:11:34.682Z,-0.07
2022-12-03T12:14:06.915Z,-0.03
2022-12-03T12:16:50.829Z,0.01
2022-12-03T12:19:27.530Z,0.08
2022-12-03T12:21:55.085Z,0.11
2022-12-03T12:24:54.862Z,0.11
2022-12-03T12:27:29.353Z,0.08
2022-12-03T12:29:58.521Z,0.06
2022-12-03T12:32:28.852Z,0.09
2022-12-03T12:35:02.096Z,0.04
2022-12-03T12:37:46.331Z,0.08
2022-12-03T12:40:16.115Z,0.22
2022-12-03T12:42:54.017Z,0.20
2022-12-03T12:45:23.349Z,0.21
2022-12-03T12:48:10.133Z,0.34
2022-12-03T12:50:38.009Z,0.34
2022-12-03T12:53:24.569Z,0.43
2022-12-03T12:55:56.114Z,0.41
2022-12-03T12:58:22.800Z,0.44
2022-12-03T13:00:53.188Z,0.46
2022-12-03T13:03:22.226Z,0.46
2022-12-03T13:05:50.924Z,0.41
2022-12-03T13:08:41.954Z,0.38
2022-12-03T13:11:34.347Z,0.37
2022-12-03T13:14:05.850Z,0.30
2022-12-03T13:16:33.114Z,0.36
2022-12-03T13:19:01.488Z,0.30
2022-12-03T13:21:41.089Z,0.36
2022-12-03T13:24:38.692Z,0.35
2022-12-03T13:27:21.794Z,0.40
2022-12-03T13:29:56.084Z,0.47
2022-12-03T13:32:34.092Z,0.46
2022-12-03T13:35:16.250Z,0.50
2022-12-03T13:37:42.872Z,0.45
2022-12-03T13:40:23.916Z,0.50
2022-12-03T13:42:50.498Z,0.50
2022-12-03T13:45:19.804Z,0.51
2022-12-03T13:47:46.229Z,0.54
2022-12-03T13:50:21.678Z,0.56
2022-12-03T13:52:48.449Z,0.54
2022-12-03T13:55:31.231Z,0.50
2022-12-03T13:57:58.265Z,0.43
2022-12-03T14:00:24.769Z,0.40
2022-12-03T14:02:51.308Z,0.38
2022-12-03T14:05:17.984Z,0.36
2022-12-03T14:07:44.588Z,0.28
2022-12-03T14:10:12.948Z,0.29
2022-12-03T14:12:39.493Z,0.44
2022-12-03T14:15:06.893Z,0.42
2022-12-03T14:17:33.434Z,0.38
2022-12-03T14:20:03.759Z,0.41
2022-12-03T14:22:30.810Z,0.46
2022-12-03T14:24:57.717Z,0.42
2022-12-03T14:27:24.865Z,0.36
2022-12-03T14:29:52.479Z,0.35
2022-12-03T14:32:19.361Z,0.31
2022-12-03T14:34:45.894Z,0.28
2022-12-03T14:37:12.641Z,0.24
2022-12-03T14:39:39.578Z,0.29
2022-12-03T14:42:15.262Z,0.30
2022-12-03T14:44:44.418Z,0.24
2022-12-03T14:47:12.352Z,0.29
2022-12-03T14:49:38.863Z,0.22
2022-12-03T14:52:08.607Z,0.25
2022-12-03T14:54:39.205Z,0.21
2022-12-03T14:57:05.781Z,0.15
2022-12-03T14:59:32.286Z,0.24
2022-12-03T15:01:58.929Z,0.22
2022-12-03T15:04:25.539Z,0.15
2022-12-03T15:07:10.627Z,0.14
2022-12-03T15:09:37.347Z,0.11
2022-12-03T15:12:04.874Z,0.10
2022-12-03T15:14:31.427Z,0.13
2022-12-03T15:16:57.984Z,0.14
2022-12-03T15:19:24.611Z,0.08
2022-12-03T15:21:51.083Z,0.08
2022-12-03T15:24:17.579Z,0.17
2022-12-03T15:26:44.119Z,0.09
2022-12-03T15:29:10.599Z,0.13
2022-12-03T15:31:37.155Z,0.14
2022-12-03T15:34:03.649Z,0.07
2022-12-03T15:36:30.105Z,0.10
2022-12-03T15:38:57.586Z,0.02
2022-12-03T15:41:28.943Z,0.10
2022-12-03T15:43:58.407Z,0.11
2022-12-03T15:46:27.670Z,0.09
2022-12-03T15:48:55.264Z,0.04
2022-12-03T15:51:22.060Z,0.01
2022-12-03T15:53:48.558Z,0.00
2022-12-03T15:56:15.369Z,-0.04
2022-12-03T15:58:41.927Z,-0.10
2022-12-03T16:01:09.273Z,-0.08
2022-12-03T16:03:36.449Z,-0.05
2022-12-03T16:06:03.074Z,-0.10
2022-12-03T16:08:29.623Z,-0.11
2022-12-03T16:10:56.124Z,-0.07
2022-12-03T16:13:22.598Z,-0.07
2022-12-03T16:15:49.126Z,-0.06
2022-12-03T16:18:15.691Z,0.02
2022-12-03T16:20:42.185Z,0.04
2022-12-03T16:23:08.678Z,0.10
2022-12-03T16:25:35.187Z,0.04
2022-12-03T16:28:01.621Z,0.06
2022-12-03T16:30:28.164Z,0.06
2022-12-03T16:32:54.585Z,0.06
2022-12-03T16:35:21.056Z,0.14
2022-12-03T16:37:47.550Z,0.21
2022-12-03T16:40:14.171Z,0.20
2022-12-03T16:42:40.773Z,0.20
2022-12-03T16:45:08.040Z,0.09
2022-12-03T16:47:35.146Z,0.20
2022-12-03T16:50:06.582Z,0.10
2022-12-03T20:04:40.187Z,-0.04
2022-12-03T20:07:06.751Z,-0.03
2022-12-03T20:09:33.248Z,-0.04
2022-12-03T20:11:59.700Z,-0.02
2022-12-03T20:14:26.262Z,-0.02
2022-12-03T20:16:52.853Z,-0.01
2022-12-03T20:19:19.408Z,-0.01
2022-12-03T20:21:45.892Z,0.00
2022-12-03T20:24:17.258Z,0.03
2022-12-03T20:26:43.956Z,0.12
2022-12-03T20:29:10.632Z,0.07
2022-12-03T20:31:37.305Z,0.04
2022-12-03T20:34:04.349Z,0.11
2022-12-03T20:36:31.572Z,0.07
2022-12-03T20:39:00.976Z,0.04
2022-12-03T20:41:28.299Z,0.01
2022-12-03T20:43:54.944Z,0.01
2022-12-03T20:46:29.306Z,-0.01
2022-12-03T20:48:56.409Z,-0.03
2022-12-03T20:51:24.463Z,0.02
2022-12-03T20:53:51.486Z,0.02
2022-12-03T20:56:20.314Z,-0.02
2022-12-03T20:58:48.841Z,-0.03
2022-12-03T21:01:21.852Z,-0.02
2022-12-03T21:03:49.706Z,0.01
2022-12-03T21:06:16.964Z,0.04
2022-12-03T21:08:44.182Z,0.06
2022-12-03T21:11:13.185Z,0.11
2022-12-03T21:13:43.934Z,0.13
2022-12-03T21:16:13.228Z,0.10
2022-12-03T21:18:39.988Z,0.09
2022-12-03T21:21:07.231Z,0.09
2022-12-03T21:23:34.802Z,0.09
2022-12-03T21:26:05.327Z,0.13
2022-12-03T21:28:34.718Z,0.11
2022-12-03T21:31:06.510Z,0.09
2022-12-03T21:33:33.683Z,0.09
2022-12-03T21:36:01.324Z,0.11
2022-12-03T21:38:29.065Z,0.10
2022-12-03T21:40:56.128Z,0.10
2022-12-03T21:43:22.576Z,0.13
2022-12-03T21:45:49.572Z,0.16
2022-12-03T21:48:16.516Z,0.20
2022-12-03T21:50:43.289Z,0.26
2022-12-03T21:53:12.991Z,0.30
2022-12-03T21:55:40.694Z,0.39
2022-12-03T21:58:09.966Z,0.37
2022-12-03T22:00:36.477Z,0.36
2022-12-03T22:03:05.994Z,0.39
2022-12-03T22:05:32.503Z,0.39
2022-12-03T22:07:59.070Z,0.45
2022-12-03T22:10:25.642Z,0.44
2022-12-03T22:12:52.085Z,0.39
2022-12-03T22:15:19.529Z,0.34
2022-12-03T22:17:46.465Z,0.34
2022-12-03T22:20:13.035Z,0.30
2022-12-03T22:22:39.595Z,0.35
2022-12-03T22:25:06.509Z,0.35
2022-12-03T22:27:32.919Z,0.33
2022-12-03T22:29:59.512Z,0.32
2022-12-03T22:32:26.118Z,0.28
2022-12-03T22:34:52.675Z,0.28
2022-12-03T22:37:19.163Z,0.31
2022-12-03T22:39:45.662Z,0.44
2022-12-03T22:42:12.136Z,0.51
2022-12-03T22:44:38.669Z,0.61
2022-12-03T22:47:05.256Z,0.71
2022-12-03T22:49:31.685Z,0.71
2022-12-03T22:51:58.183Z,0.64
2022-12-03T22:54:24.737Z,0.61
2022-12-03T22:56:51.273Z,0.58
2022-12-03T22:59:17.851Z,0.56
2022-12-03T23:01:44.390Z,0.62
2022-12-03T23:04:11.937Z,0.66
2022-12-03T23:06:38.609Z,0.59
2022-12-03T23:09:07.229Z,0.60
2022-12-03T23:11:33.967Z,0.59
2022-12-03T23:14:00.527Z,0.65
2022-12-03T23:16:29.660Z,0.66
2022-12-03T23:18:59.345Z,0.57
2022-12-03T23:21:30.329Z,0.55
2022-12-03T23:24:01.697Z,0.52
2022-12-03T23:26:28.880Z,0.55
2022-12-03T23:28:55.882Z,0.52
2022-12-03T23:31:23.579Z,0.45
2022-12-03T23:33:51.175Z,0.41
2022-12-03T23:36:18.295Z,0.38
2022-12-03T23:38:44.730Z,0.42
2022-12-03T23:41:15.129Z,0.41
2022-12-03T23:43:42.462Z,0.39
2022-12-03T23:46:27.715Z,0.36
2022-12-03T23:48:54.809Z,0.32
2022-12-03T23:51:22.556Z,0.31
2022-12-03T23:53:49.129Z,0.29
2022-12-03T23:56:18.710Z,0.29
2022-12-03T23:58:46.282Z,0.30
